createdAt,value
2019-06-07T00:00:33.521Z,1.73
2019-06-07T00:02:46.937Z,2.40
2019-06-07T00:05:19.590Z,2.07
2019-06-07T00:07:46.037Z,1.97
2019-06-07T00:10:31.229Z,1.70
2019-06-07T00:12:45.403Z,2.20
2019-06-07T00:15:20.002Z,1.90
2019-06-07T00:17:44.443Z,2.37
2019-06-07T00:20:17.514Z,2.00
2019-06-07T00:22:44.859Z,2.00
2019-06-07T00:25:17.694Z,2.37
2019-06-07T00:27:44.594Z,2.30
2019-06-07T00:30:44.562Z,2.10
2019-06-07T00:32:46.020Z,2.10
2019-06-07T00:35:19.409Z,2.67
2019-06-07T00:37:46.536Z,1.93
2019-06-07T00:40:25.325Z,2.10
2019-06-07T00:42:48.057Z,2.20
2019-06-07T00:45:21.082Z,2.60
2019-06-07T00:47:47.399Z,2.17
2019-06-07T00:50:18.755Z,2.40
2019-06-07T00:55:20.048Z,2.27
2019-06-07T00:57:48.707Z,2.53
2019-06-07T01:00:22.305Z,2.10
2019-06-07T01:02:49.965Z,2.20
2019-06-07T01:05:22.586Z,2.37
2019-06-07T01:07:49.372Z,2.20
2019-06-07T01:10:36.509Z,2.77
2019-06-07T01:12:49.195Z,2.40
2019-06-07T01:15:27.613Z,2.40
2019-06-07T01:18:32.970Z,2.73
2019-06-07T01:20:26.236Z,2.60
2019-06-07T01:22:54.809Z,3.10
2019-06-07T01:25:26.143Z,2.50
2019-06-07T01:27:54.518Z,2.93
2019-06-07T01:30:26.683Z,3.60
2019-06-07T01:32:55.142Z,2.83
2019-06-07T01:35:25.642Z,2.77
2019-06-07T01:37:54.619Z,3.03
2019-06-07T01:40:29.203Z,2.53
2019-06-07T01:42:53.830Z,2.87
2019-06-07T01:45:23.713Z,2.80
2019-06-07T01:47:52.718Z,2.77
2019-06-07T01:50:24.805Z,3.00
2019-06-07T01:52:52.469Z,3.20
2019-06-07T01:55:23.615Z,3.03
2019-06-07T01:57:52.702Z,3.13
2019-06-07T02:00:23.686Z,2.70
2019-06-07T02:02:52.181Z,3.00
2019-06-07T02:05:21.602Z,3.00
2019-06-07T02:07:51.603Z,2.93
2019-06-07T02:10:24.705Z,2.80
2019-06-07T02:12:51.989Z,3.20
2019-06-07T02:15:23.087Z,3.23
2019-06-07T02:17:51.827Z,3.10
2019-06-07T02:20:22.993Z,2.70
2019-06-07T02:22:51.176Z,3.10
2019-06-07T02:25:43.796Z,2.63
2019-06-07T02:27:51.090Z,2.80
2019-06-07T02:30:43.648Z,3.03
2019-06-07T02:32:51.450Z,2.83
2019-06-07T02:35:22.552Z,3.03
2019-06-07T02:37:50.855Z,3.30
2019-06-07T02:40:19.613Z,2.80
2019-06-07T02:42:48.928Z,3.70
2019-06-07T02:45:18.129Z,2.97
2019-06-07T02:47:48.451Z,2.70
2019-06-07T02:50:17.552Z,2.43
2019-06-07T02:52:46.204Z,3.17
2019-06-07T02:55:15.136Z,2.60
2019-06-07T02:57:44.132Z,3.00
2019-06-07T03:00:45.733Z,2.50
2019-06-07T03:02:44.460Z,2.60
2019-06-07T03:05:13.364Z,2.47
2019-06-07T03:07:45.033Z,2.70
2019-06-07T03:10:13.312Z,2.70
2019-06-07T03:12:43.614Z,2.80
2019-06-07T03:15:32.023Z,2.80
2019-06-07T03:17:51.325Z,2.63
2019-06-07T03:20:21.353Z,3.27
2019-06-07T03:22:51.475Z,2.97
2019-06-07T03:25:20.201Z,3.57
2019-06-07T03:27:50.548Z,2.77
2019-06-07T03:30:47.061Z,3.57
2019-06-07T03:32:51.986Z,3.33
2019-06-07T03:35:20.836Z,2.90
2019-06-07T03:37:49.746Z,3.00
2019-06-07T03:40:18.724Z,2.90
2019-06-07T03:42:47.743Z,3.10
2019-06-07T03:45:16.825Z,3.33
2019-06-07T03:47:45.813Z,3.17
2019-06-07T03:50:14.505Z,2.90
2019-06-07T03:52:43.150Z,2.90
2019-06-07T03:55:12.170Z,3.30
2019-06-07T03:58:29.838Z,2.97
2019-06-07T04:00:12.212Z,3.23
2019-06-07T04:02:42.124Z,3.57
2019-06-07T04:05:11.293Z,3.13
2019-06-07T04:07:44.479Z,3.03
2019-06-07T04:10:11.477Z,3.07
2019-06-07T04:12:43.949Z,5.23
2019-06-07T04:15:11.190Z,3.90
2019-06-07T04:18:00.493Z,3.13
2019-06-07T04:20:10.827Z,3.00
2019-06-07T04:22:42.419Z,2.93
2019-06-07T04:25:10.953Z,3.47
2019-06-07T04:27:41.038Z,3.03
2019-06-07T04:30:10.895Z,2.73
2019-06-07T04:32:44.733Z,3.20
2019-06-07T04:35:10.314Z,3.20
2019-06-07T04:37:41.103Z,3.10
2019-06-07T04:40:09.931Z,5.87
2019-06-07T04:42:44.913Z,3.40
2019-06-07T04:45:32.359Z,3.53
2019-06-07T04:47:42.251Z,3.50
2019-06-07T04:50:11.847Z,3.43
2019-06-07T04:52:44.926Z,3.37
2019-06-07T04:55:11.778Z,2.90
2019-06-07T04:57:43.372Z,3.53
2019-06-07T05:00:44.890Z,3.10
2019-06-07T05:02:43.549Z,3.13
2019-06-07T05:05:12.978Z,2.90
2019-06-07T05:07:46.111Z,3.07
2019-06-07T05:10:12.914Z,3.57
2019-06-07T05:12:44.328Z,3.23
2019-06-07T05:15:13.767Z,3.27
2019-06-07T05:17:44.945Z,2.97
2019-06-07T05:20:14.214Z,3.40
2019-06-07T05:22:45.225Z,3.50
2019-06-07T05:25:13.386Z,3.63
2019-06-07T05:27:46.650Z,3.30
2019-06-07T05:30:51.150Z,3.50
2019-06-07T05:32:45.995Z,4.37
2019-06-07T05:35:15.661Z,3.90
2019-06-07T05:37:45.988Z,4.43
2019-06-07T05:40:18.656Z,3.30
2019-06-07T05:42:47.310Z,3.40
2019-06-07T05:45:20.531Z,3.37
2019-06-07T05:47:50.938Z,3.57
2019-06-07T05:52:49.959Z,3.23
2019-06-07T05:55:18.962Z,3.97
2019-06-07T05:57:50.966Z,3.13
2019-06-07T06:00:18.289Z,3.17
2019-06-07T06:03:03.990Z,3.60
2019-06-07T06:05:32.332Z,3.43
2019-06-07T06:07:50.916Z,3.20
2019-06-07T06:10:18.766Z,3.23
2019-06-07T06:12:51.790Z,3.17
2019-06-07T06:15:18.097Z,3.00
2019-06-07T06:17:50.065Z,3.57
2019-06-07T06:20:17.829Z,3.03
2019-06-07T06:22:48.721Z,2.87
2019-06-07T06:25:31.823Z,2.97
2019-06-07T06:28:11.415Z,2.90
2019-06-07T06:30:19.627Z,2.93
2019-06-07T06:32:56.858Z,2.93
2019-06-07T06:35:19.250Z,2.97
2019-06-07T06:37:52.941Z,3.13
2019-06-07T06:40:19.622Z,3.03
2019-06-07T06:42:50.523Z,2.80
2019-06-07T06:45:19.785Z,3.23
2019-06-07T06:47:50.536Z,3.20
2019-06-07T06:50:22.327Z,3.10
2019-06-07T06:52:54.417Z,3.13
2019-06-07T06:55:22.873Z,3.07
2019-06-07T06:57:52.925Z,2.80
2019-06-07T07:00:46.234Z,3.30
2019-06-07T07:05:43.997Z,3.37
2019-06-07T07:08:14.251Z,3.30
2019-06-07T07:10:46.013Z,3.43
2019-06-07T07:13:14.961Z,3.20
2019-06-07T07:15:45.341Z,3.13
2019-06-07T07:18:14.640Z,2.87
2019-06-07T07:20:45.494Z,3.27
2019-06-07T07:23:14.264Z,3.40
2019-06-07T07:25:46.046Z,3.10
2019-06-07T07:28:13.703Z,3.20
2019-06-07T07:30:44.991Z,3.70
2019-06-07T07:33:13.647Z,3.23
2019-06-07T07:36:08.098Z,3.50
2019-06-07T07:38:13.283Z,3.20
2019-06-07T07:41:10.585Z,2.90
2019-06-07T07:43:13.198Z,2.80
2019-06-07T07:45:41.986Z,2.87
2019-06-07T07:48:17.875Z,3.83
2019-06-07T07:50:41.913Z,3.50
2019-06-07T07:53:11.345Z,3.70
2019-06-07T07:55:40.042Z,3.40
2019-06-07T07:58:08.729Z,3.47
2019-06-07T08:01:07.883Z,3.30
2019-06-07T08:03:09.902Z,3.03
2019-06-07T08:05:42.794Z,3.37
2019-06-07T08:08:09.985Z,2.93
2019-06-07T08:10:38.701Z,2.80
2019-06-07T08:13:23.412Z,3.10
2019-06-07T08:15:38.193Z,3.00
2019-06-07T08:18:06.912Z,3.10
2019-06-07T08:20:35.772Z,2.77
2019-06-07T08:23:04.868Z,2.90
2019-06-07T08:25:34.168Z,2.90
2019-06-07T08:28:03.204Z,3.00
2019-06-07T08:30:50.028Z,3.43
2019-06-07T08:33:24.611Z,3.10
2019-06-07T08:40:34.585Z,2.87
2019-06-07T08:43:19.315Z,3.27
2019-06-07T08:45:33.930Z,3.20
2019-06-07T08:48:09.512Z,3.27
2019-06-07T08:50:33.933Z,3.10
2019-06-07T08:53:11.948Z,3.47
2019-06-07T08:55:33.977Z,3.10
2019-06-07T08:58:08.171Z,2.90
2019-06-07T09:00:49.289Z,2.87
2019-06-07T09:03:07.165Z,3.00
2019-06-07T09:05:35.577Z,3.00
2019-06-07T09:08:28.707Z,2.80
2019-06-07T09:10:34.997Z,3.30
2019-06-07T09:13:10.179Z,3.27
2019-06-07T09:15:34.353Z,3.03
2019-06-07T09:18:40.144Z,3.23
2019-06-07T09:20:45.673Z,3.10
2019-06-07T09:23:17.362Z,3.30
2019-06-07T09:25:57.378Z,3.80
2019-06-07T09:28:20.117Z,3.50
2019-06-07T09:30:47.631Z,3.40
2019-06-07T09:33:16.630Z,3.50
2019-06-07T09:35:45.825Z,3.93
2019-06-07T09:38:24.987Z,3.60
2019-06-07T09:40:44.871Z,3.90
2019-06-07T09:45:44.464Z,3.67
2019-06-07T09:48:16.562Z,5.20
2019-06-07T09:50:43.885Z,3.20
2019-06-07T09:53:21.910Z,3.53
2019-06-07T09:55:43.219Z,3.10
2019-06-07T10:00:43.158Z,3.17
2019-06-07T10:03:20.706Z,3.50
2019-06-07T10:05:42.791Z,3.40
2019-06-07T10:08:54.736Z,3.30
2019-06-07T10:10:43.121Z,3.93
2019-06-07T10:13:12.343Z,4.00
2019-06-07T10:15:41.081Z,3.90
2019-06-07T10:18:09.762Z,3.17
2019-06-07T10:20:38.483Z,3.40
2019-06-07T10:23:08.085Z,3.07
2019-06-07T10:25:37.385Z,3.40
2019-06-07T10:28:08.072Z,3.50
2019-06-07T10:30:37.327Z,3.50
2019-06-07T10:33:06.842Z,3.20
2019-06-07T10:35:36.016Z,3.63
2019-06-07T10:38:04.781Z,3.33
2019-06-07T10:40:33.799Z,3.27
2019-06-07T10:43:02.919Z,4.10
2019-06-07T10:45:32.106Z,3.97
2019-06-07T10:48:01.702Z,4.63
2019-06-07T10:50:30.454Z,4.60
2019-06-07T10:52:59.117Z,4.77
2019-06-07T10:55:27.746Z,4.30
2019-06-07T10:57:56.486Z,4.37
2019-06-07T11:00:28.002Z,4.40
2019-06-07T11:02:56.763Z,4.30
2019-06-07T11:05:25.888Z,3.93
2019-06-07T11:07:54.794Z,3.63
2019-06-07T11:10:23.771Z,4.40
2019-06-07T11:12:52.768Z,4.10
2019-06-07T11:15:22.148Z,3.90
2019-06-07T11:17:51.059Z,3.60
2019-06-07T11:20:20.165Z,4.90
2019-06-07T11:22:49.473Z,4.50
2019-06-07T11:25:18.710Z,4.40
2019-06-07T11:27:47.753Z,4.20
2019-06-07T11:30:16.720Z,3.87
2019-06-07T11:32:46.052Z,3.53
2019-06-07T11:35:15.548Z,4.10
2019-06-07T11:37:44.652Z,3.60
2019-06-07T11:40:31.936Z,3.97
2019-06-07T11:42:46.122Z,3.97
2019-06-07T11:45:15.795Z,3.90
2019-06-07T11:47:44.503Z,4.20
2019-06-07T11:50:13.924Z,4.20
2019-06-07T11:52:46.144Z,4.00
2019-06-07T11:55:13.920Z,3.90
2019-06-07T11:57:44.284Z,3.50
2019-06-07T12:00:16.385Z,4.13
2019-06-07T12:02:46.912Z,4.03
2019-06-07T12:05:18.398Z,4.50
2019-06-07T12:07:46.603Z,4.80
2019-06-07T12:10:20.501Z,8.87
2019-06-07T12:12:47.505Z,4.33
2019-06-07T12:15:17.292Z,4.20
2019-06-07T12:17:46.675Z,4.50
2019-06-07T12:20:19.512Z,4.00
2019-06-07T12:22:48.909Z,4.03
2019-06-07T12:25:22.615Z,3.53
2019-06-07T12:27:48.588Z,3.90
2019-06-07T12:30:24.275Z,3.77
2019-06-07T12:32:47.764Z,3.50
2019-06-07T12:35:17.757Z,3.70
2019-06-07T12:37:47.334Z,3.50
2019-06-07T12:40:27.673Z,3.57
2019-06-07T12:42:47.260Z,4.20
2019-06-07T12:45:32.384Z,3.70
2019-06-07T12:47:46.719Z,3.10
2019-06-07T12:50:15.508Z,3.03
2019-06-07T12:52:44.468Z,3.50
2019-06-07T12:55:14.012Z,3.40
2019-06-07T12:57:43.364Z,3.13
2019-06-07T13:00:14.147Z,3.93
2019-06-07T13:02:43.616Z,3.70
2019-06-07T13:05:12.850Z,3.10
2019-06-07T13:07:41.802Z,3.07
2019-06-07T13:10:11.002Z,3.77
2019-06-07T13:12:39.758Z,3.40
2019-06-07T13:15:09.301Z,3.50
2019-06-07T13:17:37.930Z,2.77
2019-06-07T13:20:07.060Z,2.33
2019-06-07T13:22:36.054Z,2.87
2019-06-07T13:25:05.224Z,2.40
2019-06-07T13:27:34.100Z,1.93
2019-06-07T13:30:09.875Z,2.13
2019-06-07T13:32:33.689Z,2.10
2019-06-07T13:35:02.928Z,2.00
2019-06-07T13:37:31.590Z,1.83
2019-06-07T13:40:00.579Z,2.00
2019-06-07T13:42:29.253Z,2.20
2019-06-07T13:44:58.250Z,1.90
2019-06-07T13:47:27.485Z,2.63
2019-06-07T13:49:56.568Z,2.37
2019-06-07T13:52:25.299Z,1.97
2019-06-07T13:54:54.351Z,2.20
2019-06-07T13:57:24.380Z,1.80
2019-06-07T13:59:53.544Z,2.10
2019-06-07T14:02:23.701Z,2.30
2019-06-07T14:04:53.685Z,1.90
2019-06-07T14:07:23.651Z,2.10
2019-06-07T14:09:53.724Z,2.03
2019-06-07T14:12:24.089Z,1.90
2019-06-07T14:14:52.895Z,1.90
2019-06-07T14:17:21.607Z,2.00
2019-06-07T14:19:50.930Z,2.43
2019-06-07T14:22:20.561Z,2.00
2019-06-07T14:24:49.304Z,1.83
2019-06-07T14:27:18.436Z,1.90
2019-06-07T14:29:47.126Z,2.30
2019-06-07T14:32:15.840Z,2.30
2019-06-07T14:34:44.528Z,2.07
2019-06-07T14:37:14.200Z,2.00
2019-06-07T14:39:43.443Z,1.90
2019-06-07T14:42:12.432Z,2.10
2019-06-07T14:44:41.384Z,1.90
2019-06-07T14:47:10.857Z,2.07
2019-06-07T14:49:39.831Z,1.80
2019-06-07T14:52:08.601Z,2.00
2019-06-07T14:54:39.250Z,2.00
2019-06-07T14:57:07.755Z,2.47
2019-06-07T14:59:36.719Z,2.07
2019-06-07T15:02:05.475Z,1.93
2019-06-07T15:04:34.913Z,2.10
2019-06-07T15:07:04.099Z,2.17
2019-06-07T15:09:33.064Z,2.10
2019-06-07T15:12:01.950Z,2.03
2019-06-07T15:14:31.439Z,1.90
2019-06-07T15:17:00.651Z,2.07
2019-06-07T15:19:31.137Z,2.17
2019-06-07T15:22:00.279Z,2.00
2019-06-07T15:24:33.679Z,2.23
2019-06-07T15:27:00.209Z,1.93
2019-06-07T15:29:29.745Z,2.20
2019-06-07T15:31:58.910Z,2.10
2019-06-07T15:34:29.192Z,1.90
2019-06-07T15:36:58.535Z,2.43
2019-06-07T15:39:28.411Z,1.90
2019-06-07T15:41:57.579Z,2.20
2019-06-07T15:44:26.213Z,2.10
2019-06-07T15:46:54.857Z,1.87
2019-06-07T15:49:23.814Z,2.60
2019-06-07T15:51:52.452Z,1.80
2019-06-07T15:54:21.112Z,1.90
2019-06-07T15:56:49.771Z,9.20
2019-06-07T15:59:18.764Z,3.37
2019-06-07T16:01:47.376Z,2.20
2019-06-07T16:04:16.657Z,2.30
2019-06-07T16:06:45.951Z,2.70
2019-06-07T16:09:15.250Z,3.50
2019-06-07T16:11:44.337Z,6.50
2019-06-07T16:14:12.983Z,3.10
2019-06-07T16:16:43.259Z,2.37
2019-06-07T16:19:12.158Z,1.90
2019-06-07T16:21:41.509Z,1.80
2019-06-07T16:24:10.547Z,1.90
2019-06-07T16:26:40.196Z,1.77
2019-06-07T16:29:09.211Z,2.30
2019-06-07T16:31:38.720Z,1.87
2019-06-07T16:34:08.352Z,2.20
2019-06-07T16:36:38.348Z,2.10
2019-06-07T16:39:08.180Z,3.10
2019-06-07T16:41:38.378Z,2.53
2019-06-07T16:44:07.085Z,3.43
2019-06-07T16:46:36.703Z,2.20
2019-06-07T16:49:06.115Z,2.03
2019-06-07T16:51:34.829Z,1.90
2019-06-07T16:54:04.000Z,2.40
2019-06-07T16:56:32.994Z,2.47
2019-06-07T16:59:01.665Z,2.23
2019-06-07T17:01:30.570Z,2.00
2019-06-07T17:04:02.107Z,2.07
2019-06-07T17:06:31.377Z,1.87
2019-06-07T17:08:59.951Z,2.13
2019-06-07T17:11:28.903Z,2.00
2019-06-07T17:13:57.550Z,2.30
2019-06-07T17:16:26.197Z,2.20
2019-06-07T17:18:54.841Z,2.30
2019-06-07T17:21:23.754Z,2.40
2019-06-07T17:23:52.403Z,2.20
2019-06-07T17:26:21.533Z,2.23
2019-06-07T17:28:50.236Z,2.07
2019-06-07T17:31:18.926Z,2.30
2019-06-07T17:33:48.326Z,2.20
2019-06-07T17:36:17.244Z,2.37
2019-06-07T17:38:46.926Z,2.20
2019-06-07T17:41:15.648Z,2.10
2019-06-07T17:43:52.983Z,2.20
2019-06-07T17:46:15.082Z,2.40
2019-06-07T17:48:43.727Z,2.43
2019-06-07T17:51:12.709Z,2.40
2019-06-07T17:53:41.878Z,2.50
2019-06-07T17:56:11.005Z,2.43
2019-06-07T17:58:39.894Z,2.13
2019-06-07T18:01:08.523Z,2.10
2019-06-07T18:03:37.778Z,2.23
2019-06-07T18:06:06.777Z,2.33
2019-06-07T18:08:36.482Z,2.37
2019-06-07T18:11:05.477Z,2.40
2019-06-07T18:13:34.101Z,2.30
2019-06-07T18:16:02.761Z,2.17
2019-06-07T18:18:31.737Z,2.50
2019-06-07T18:21:00.393Z,2.10
2019-06-07T18:23:29.319Z,2.27
2019-06-07T18:25:58.868Z,2.37
2019-06-07T18:28:28.022Z,2.27
2019-06-07T18:30:56.665Z,2.20
2019-06-07T18:33:25.603Z,2.10
2019-06-07T18:35:55.303Z,2.07
2019-06-07T18:38:24.078Z,2.40
2019-06-07T18:40:53.293Z,2.17
2019-06-07T18:43:22.026Z,2.43
2019-06-07T18:45:51.439Z,2.50
2019-06-07T18:48:20.385Z,2.40
2019-06-07T18:50:50.624Z,2.60
2019-06-07T18:53:19.888Z,2.70
2019-06-07T18:55:49.788Z,2.37
2019-06-07T18:58:18.918Z,2.50
2019-06-07T19:00:49.719Z,2.87
2019-06-07T19:03:18.646Z,2.60
2019-06-07T19:05:48.057Z,2.47
2019-06-07T19:08:17.878Z,2.60
2019-06-07T19:10:48.589Z,2.30
2019-06-07T19:13:17.389Z,2.60
2019-06-07T19:15:46.590Z,2.90
2019-06-07T19:18:15.196Z,2.80
2019-06-07T19:20:44.275Z,3.20
2019-06-07T19:23:13.254Z,3.47
2019-06-07T19:25:42.248Z,3.03
2019-06-07T19:28:11.247Z,4.33
2019-06-07T19:30:39.897Z,3.77
2019-06-07T19:33:08.822Z,3.50
2019-06-07T19:35:38.059Z,4.13
2019-06-07T19:38:07.432Z,3.60
2019-06-07T19:40:36.048Z,3.40
2019-06-07T19:43:05.451Z,3.77
2019-06-07T19:45:34.503Z,4.00
2019-06-07T19:48:03.504Z,3.70
2019-06-07T19:50:32.696Z,4.17
2019-06-07T19:53:03.698Z,4.10
2019-06-07T19:55:32.353Z,4.40
2019-06-07T19:58:01.777Z,4.87
2019-06-07T20:00:31.013Z,4.40
2019-06-07T20:03:00.268Z,4.40
2019-06-07T20:05:29.330Z,4.30
2019-06-07T20:07:58.513Z,4.77
2019-06-07T20:10:27.197Z,4.87
2019-06-07T20:12:56.587Z,4.83
2019-06-07T20:15:28.916Z,4.33
2019-06-07T20:17:57.081Z,4.43
2019-06-07T20:20:26.168Z,4.30
2019-06-07T20:22:54.790Z,4.83
2019-06-07T20:25:23.743Z,4.70
2019-06-07T20:27:52.938Z,4.50
2019-06-07T20:30:21.927Z,5.03
2019-06-07T20:32:51.038Z,4.57
2019-06-07T20:35:19.821Z,4.97
2019-06-07T20:37:48.720Z,4.63
2019-06-07T20:40:24.401Z,5.17
2019-06-07T20:42:48.439Z,5.30
2019-06-07T20:45:32.078Z,4.70
2019-06-07T20:47:47.971Z,5.17
2019-06-07T20:50:17.795Z,5.57
2019-06-07T20:52:47.091Z,5.57
2019-06-07T20:55:17.176Z,5.50
2019-06-07T20:57:46.103Z,6.13
2019-06-07T21:00:21.431Z,5.77
2019-06-07T21:02:45.793Z,5.30
2019-06-07T21:05:14.824Z,5.80
2019-06-07T21:07:44.105Z,6.17
2019-06-07T21:10:13.510Z,6.20
2019-06-07T21:12:42.173Z,5.80
2019-06-07T21:15:14.286Z,5.70
2019-06-07T21:17:42.070Z,5.93
2019-06-07T21:20:14.299Z,6.07
2019-06-07T21:22:41.591Z,5.80
2019-06-07T21:25:11.726Z,6.20
2019-06-07T21:27:41.388Z,6.07
2019-06-07T21:30:11.781Z,6.30
2019-06-07T21:32:40.812Z,6.93
2019-06-07T21:35:10.189Z,6.60
2019-06-07T21:37:39.407Z,6.77
2019-06-07T21:40:10.320Z,6.23
2019-06-07T21:42:39.516Z,6.47
2019-06-07T21:45:09.952Z,6.60
2019-06-07T21:47:39.996Z,7.07
2019-06-07T21:50:09.024Z,7.57
2019-06-07T21:52:37.636Z,7.30
2019-06-07T21:55:06.957Z,8.07
2019-06-07T21:57:36.063Z,8.67
2019-06-07T22:00:09.236Z,7.93
2019-06-07T22:02:38.455Z,7.93
2019-06-07T22:05:07.438Z,9.00
2019-06-07T22:07:36.440Z,8.13
2019-06-07T22:10:05.940Z,8.80
2019-06-07T22:12:35.249Z,8.47
2019-06-07T22:15:17.171Z,8.50
2019-06-07T22:17:34.784Z,9.33
2019-06-07T22:20:04.340Z,9.40
2019-06-07T22:22:33.297Z,10.10
2019-06-07T22:25:02.262Z,9.73
2019-06-07T22:27:31.389Z,9.63
2019-06-07T22:30:00.012Z,9.87
2019-06-07T22:32:28.645Z,9.67
2019-06-07T22:34:57.297Z,10.10
2019-06-07T22:37:26.217Z,10.37
2019-06-07T22:39:54.850Z,10.13
2019-06-07T22:42:23.793Z,11.07
2019-06-07T22:44:52.839Z,10.63
2019-06-07T22:47:21.492Z,10.03
2019-06-07T22:49:50.384Z,10.53
2019-06-07T22:52:19.059Z,9.87
2019-06-07T22:54:47.672Z,11.03
2019-06-07T22:57:21.949Z,10.40
2019-06-07T22:59:50.944Z,10.40
2019-06-07T23:02:19.834Z,11.13
2019-06-07T23:04:48.839Z,10.87
2019-06-07T23:07:17.523Z,10.50
2019-06-07T23:09:46.153Z,10.57
2019-06-07T23:12:15.309Z,12.20
2019-06-07T23:14:44.005Z,11.00
2019-06-07T23:17:13.888Z,16.50
2019-06-07T23:19:42.909Z,12.87
2019-06-07T23:22:11.957Z,12.03
2019-06-07T23:24:40.887Z,11.50
2019-06-07T23:27:10.912Z,11.73
2019-06-07T23:29:40.303Z,11.40
2019-06-07T23:32:10.509Z,11.53
2019-06-07T23:34:39.203Z,13.03
2019-06-07T23:37:08.206Z,15.27
2019-06-07T23:39:36.884Z,13.70
2019-06-07T23:42:05.890Z,12.40
2019-06-07T23:44:34.537Z,12.17
2019-06-07T23:47:11.313Z,11.53
2019-06-07T23:49:34.513Z,12.33
2019-06-07T23:52:03.403Z,13.30
2019-06-07T23:54:32.074Z,12.00
2019-06-07T23:57:01.643Z,10.77
2019-06-07T23:59:30.583Z,11.60
